Pompeys Pillar, MT (59064)

11:23 AM MDT on August 29, 2014 (GMT -0600)
Custer | Change Station
CLOSE
Current Station
Personal Weather Station
Location: Waco, MT
Elevation: 2785 ft
Nearby Weather Stations

Elev 2785 ft 46.07 °N, 107.72 °W | Updated 14 minutes ago

Partly Cloudy
Partly Cloudy
67.1 °F
Feels Like 67.1 °F
N
1.0
Wind Variable Wind from NNE
Gusts 6.0 mph

Today
High -- | Low -- °F
--% Chance of Precip.
Yesterday
High -- | Low -- °F
Precip. -- in
6:29 AM 7:55 PM
Waxing Crescent, 15% visible
Pressure 30.01 in
Visibility 10.0 miles
Clouds Few 4200 ft
Few 20000 ft
Dew Point 53 °F
Humidity 61%
Rainfall 0.05 in
Snow Depth Not available.
UV 6 out of 12
Pollen 6.90 out of 12
Air Quality Not available.
Flu Activity Not available.
METAR KBIL 291653Z 04006KT 10SM FEW042 FEW200 19/11 A3009 RMK AO2 SLP160 T01890106

More Conditions Fewer Conditions

Pressure 30.01 in
Visibility 10.0 miles
Clouds Few 4200 ft
Few 20000 ft
Dew Point 53 °F
Humidity 61%
Rainfall 0.05 in
Snow Depth Not available.
UV 6 out of 12
Pollen 6.90 out of 12
Air Quality Not available.
Flu Activity Not available.
METAR KBIL 291653Z 04006KT 10SM FEW042 FEW200 19/11 A3009 RMK AO2 SLP160 T01890106

More Conditions Fewer Conditions

10-Day Weather Forecast

Almanac

Astronomy

Aug. 29, 2014 Rise Set
Actual Time 6:29 AM MDT 7:55 PM MDT
Civil Twilight 5:57 AM MDT 8:26 PM MDT
Nautical Twilight 5:20 AM MDT 9:04 PM MDT
Astronomical Twilight 4:39 AM MDT 9:44 PM MDT
Moon 10:36 AM MDT 9:39 PM MDT
Length of Visible Light 14h 28m
Length of Day
13h 26m
Tomorrow will be 3m 7s shorter.
Waxing Crescent, 15% of the Moon is Illuminated
Today
Waxing Crescent
Sep 2
First Quarter
Sep 8
Full
Sep 15
Last Quarter
Sep 24
New

Today's Extremes

State Highs State Lows

Community

WunderPhotos

Upload Photos

1,748,299 photos uploaded!

Nearby

Snow Depth

Station Depth Elevation
Cole Creek 1 in 7850 ft
Burnt Mountain 0 in 5880 ft
Crystal Lake 0 in 6050 ft
White Mill 0 in 8700 ft
Northeast Entrance 0 in 7350 ft

Earthquake Activity

City Distance Mag. Time & Date
No recent earthquake activity has been reported nearby.
Minimum magnitude displayed is 2.5.

Coastal Water Temperatures

Place Temperature
No Stations Reporting

Nearby Weather Stations